MA32 weather

Atlantic Trade Heliport
Worcester, Massachusetts, United States

Public forecast

Using degrees Fahrenheit for public forecast. Weather courtesy of forecast.io.

METAR (pilot weather report)

Closest report is Worcester Regional Airport, 4.7 nm (8.8 km) W. Retrieved 2019/09/21 06:54 UTC (55 minutes ago):

KORH 210654Z AUTO 30009KT 10SM CLR 16/08 A3018 RMK AO2 SLP216 T01560083

TAF (pilot weather forecast)

Closest forecast is Worcester Regional Airport, 4.7 nm (8.8 km) W. Retrieved 2019/09/21 06:27 UTC (1 hour ago):

TAF KORH 210524Z 2106/2206 29011KT P6SM SKC FM211000 32006KT P6SM FEW120 FM211500 28003KT P6SM SKC FM211700 25004KT P6SM SKC